createdAt,value
2023-03-26T00:00:13.375Z,99672.85
2023-03-26T00:05:38.936Z,99682.48
2023-03-26T00:10:44.880Z,99690.09
2023-03-26T00:15:50.165Z,99692.08
2023-03-26T00:20:55.806Z,99695.66
2023-03-26T00:26:01.557Z,99696.70
2023-03-26T00:31:10.290Z,99698.41
2023-03-26T00:36:17.604Z,99699.73
2023-03-26T00:41:26.381Z,99692.05
2023-03-26T00:46:32.997Z,99694.96
2023-03-26T00:51:39.375Z,99698.97
2023-03-26T00:56:45.364Z,99702.46
2023-03-26T01:01:55.131Z,99701.46
2023-03-26T01:07:04.854Z,99698.80
2023-03-26T01:12:17.003Z,99702.80
2023-03-26T01:17:23.866Z,99707.39
2023-03-26T01:22:30.026Z,99714.67
2023-03-26T01:27:41.244Z,99722.27
2023-03-26T01:32:55.777Z,99721.73
2023-03-26T01:38:18.465Z,99723.53
2023-03-26T01:43:32.482Z,99723.80
2023-03-26T01:48:40.433Z,99727.63
2023-03-26T01:53:48.606Z,99724.05
2023-03-26T01:59:08.246Z,99725.45
2023-03-26T02:04:24.638Z,99726.02
2023-03-26T02:09:35.858Z,99721.56
2023-03-26T02:14:42.436Z,99719.59
2023-03-26T02:19:48.116Z,99718.05
2023-03-26T02:24:53.587Z,99720.81
2023-03-26T02:29:58.927Z,99724.61
2023-03-26T02:35:06.877Z,99720.40
2023-03-26T02:40:12.766Z,99724.09
2023-03-26T02:45:18.440Z,99734.84
2023-03-26T02:50:24.156Z,99745.36
2023-03-26T02:55:29.813Z,99750.05
2023-03-26T03:00:35.647Z,99743.36
2023-03-26T03:05:43.306Z,99744.96
2023-03-26T03:10:59.117Z,99750.20
2023-03-26T03:16:05.775Z,99750.33
2023-03-26T03:21:11.277Z,99756.98
2023-03-26T03:26:21.720Z,99756.09
2023-03-26T03:31:28.471Z,99759.89
2023-03-26T03:36:33.942Z,99762.86
2023-03-26T03:41:39.288Z,99764.77
2023-03-26T03:46:44.684Z,99771.23
2023-03-26T03:51:50.278Z,99773.75
2023-03-26T03:56:56.454Z,99771.66
2023-03-26T04:02:02.309Z,99772.70
2023-03-26T04:07:07.643Z,99776.02
2023-03-26T04:12:13.054Z,99780.14
2023-03-26T04:17:21.965Z,99781.84
2023-03-26T04:22:34.635Z,99784.11
2023-03-26T04:27:43.364Z,99789.11
2023-03-26T04:32:49.181Z,99784.17
2023-03-26T04:37:54.952Z,99781.81
2023-03-26T04:43:02.383Z,99783.46
2023-03-26T04:48:08.296Z,99785.15
2023-03-26T04:53:16.625Z,99784.41
2023-03-26T04:58:21.965Z,99784.46
2023-03-26T05:03:31.364Z,99782.09
2023-03-26T05:08:36.678Z,99787.61
2023-03-26T05:13:42.926Z,99789.70
2023-03-26T05:18:48.482Z,99788.49
2023-03-26T05:23:54.001Z,99793.63
2023-03-26T05:28:59.798Z,99790.29
2023-03-26T05:34:06.745Z,99789.22
2023-03-26T05:39:14.259Z,99790.86
2023-03-26T05:44:19.878Z,99796.98
2023-03-26T05:49:25.525Z,99796.34
2023-03-26T05:54:31.363Z,99801.45
2023-03-26T05:59:36.823Z,99802.75
2023-03-26T06:04:42.876Z,99808.02
2023-03-26T06:09:48.779Z,99816.57
2023-03-26T06:14:54.224Z,99812.76
2023-03-26T06:19:59.551Z,99820.36
2023-03-26T06:25:06.314Z,99825.25
2023-03-26T06:30:13.818Z,99828.09
2023-03-26T06:35:19.438Z,99832.48
2023-03-26T06:40:25.534Z,99827.59
2023-03-26T06:45:32.327Z,99831.70
2023-03-26T06:50:37.663Z,99831.06
2023-03-26T06:55:43.205Z,99827.30
2023-03-26T07:00:48.951Z,99829.46
2023-03-26T07:05:54.696Z,99827.05
2023-03-26T07:11:00.256Z,99823.02
2023-03-26T07:16:07.319Z,99822.73
2023-03-26T07:21:14.903Z,99827.43
2023-03-26T07:26:31.121Z,99823.08
2023-03-26T07:31:42.639Z,99818.95
2023-03-26T07:36:57.232Z,99817.86
2023-03-26T07:42:11.491Z,99818.54
2023-03-26T07:47:27.198Z,99821.97
2023-03-26T07:52:33.875Z,99817.85
2023-03-26T07:57:47.531Z,99821.88
2023-03-26T08:03:13.923Z,99821.52
2023-03-26T08:08:27.262Z,99819.91
2023-03-26T08:13:42.305Z,99819.17
2023-03-26T08:18:56.318Z,99820.11
2023-03-26T08:24:07.817Z,99821.39
2023-03-26T08:29:23.064Z,99816.70
2023-03-26T08:34:28.572Z,99816.20
2023-03-26T08:39:34.186Z,99816.18
2023-03-26T08:45:26.410Z,99817.50
2023-03-26T08:50:56.615Z,99819.46
2023-03-26T08:56:12.039Z,99814.10
2023-03-26T09:01:41.161Z,99817.15
2023-03-26T09:07:10.001Z,99812.43
2023-03-26T09:12:46.606Z,99804.73
2023-03-26T09:18:25.262Z,99806.77
2023-03-26T09:23:56.110Z,99810.29
2023-03-26T09:29:34.722Z,99817.98
2023-03-26T09:34:55.089Z,99814.44
2023-03-26T09:40:15.420Z,99813.66
2023-03-26T09:45:38.250Z,99815.68
2023-03-26T09:50:56.343Z,99817.02
2023-03-26T09:56:14.371Z,99816.86
2023-03-26T10:01:29.231Z,99818.13
2023-03-26T10:06:48.999Z,99818.04
2023-03-26T10:12:08.879Z,99819.70
2023-03-26T10:17:32.041Z,99818.28
2023-03-26T10:22:51.607Z,99814.05
2023-03-26T10:28:09.816Z,99809.14
2023-03-26T10:33:25.219Z,99807.09
2023-03-26T10:38:46.756Z,99808.34
2023-03-26T10:44:15.788Z,99808.27
2023-03-26T10:49:39.762Z,99811.67
2023-03-26T10:54:55.400Z,99815.73
2023-03-26T11:00:12.807Z,99815.70
2023-03-26T11:05:39.552Z,99810.30
2023-03-26T11:10:56.416Z,99807.61
2023-03-26T11:16:06.110Z,99803.92
2023-03-26T11:21:20.677Z,99801.66
2023-03-26T11:26:32.843Z,99792.21
2023-03-26T11:31:48.503Z,99792.84
2023-03-26T11:36:56.519Z,99787.58
2023-03-26T11:42:07.374Z,99780.39
2023-03-26T11:47:16.265Z,99776.71
2023-03-26T11:52:22.348Z,99779.30
2023-03-26T11:57:33.434Z,99776.09
2023-03-26T12:02:42.181Z,99773.15
2023-03-26T12:07:52.702Z,99766.52
2023-03-26T12:13:01.594Z,99753.92
2023-03-26T12:18:25.910Z,99747.10
2023-03-26T12:23:43.576Z,99744.52
2023-03-26T12:28:51.294Z,99733.52
2023-03-26T12:34:14.047Z,99726.58
2023-03-26T12:40:08.087Z,99722.24
2023-03-26T12:44:59.951Z,99719.86
2023-03-26T12:50:09.659Z,99714.46
2023-03-26T12:55:38.105Z,99718.40
2023-03-26T13:00:55.599Z,99721.23
2023-03-26T13:06:20.506Z,99721.93
2023-03-26T13:11:34.336Z,99714.11
2023-03-26T13:16:46.691Z,99709.30
2023-03-26T13:22:02.767Z,99708.13
2023-03-26T13:27:22.280Z,99704.34
2023-03-26T13:32:37.876Z,99703.83
2023-03-26T13:37:51.403Z,99701.60
2023-03-26T13:43:14.481Z,99696.87
2023-03-26T13:48:24.176Z,99694.52
2023-03-26T13:53:35.064Z,99694.12
2023-03-26T13:58:49.031Z,99699.00
2023-03-26T14:04:04.361Z,99702.84
2023-03-26T14:09:17.847Z,99697.70
2023-03-26T14:14:31.582Z,99697.30
2023-03-26T14:20:10.975Z,99698.19
2023-03-26T14:25:25.867Z,99699.41
2023-03-26T14:31:08.824Z,99699.81
2023-03-26T14:36:29.003Z,99697.50
2023-03-26T14:41:43.824Z,99693.56
2023-03-26T14:47:02.754Z,99688.63
2023-03-26T14:52:14.856Z,99687.74
2023-03-26T14:57:38.546Z,99689.02
2023-03-26T15:03:34.825Z,99681.63
2023-03-26T15:09:11.456Z,99673.55
2023-03-26T15:14:43.824Z,99667.05
2023-03-26T15:20:10.646Z,99668.73
2023-03-26T15:25:41.063Z,99672.55
2023-03-26T15:31:11.260Z,99671.17
2023-03-26T15:36:37.179Z,99676.90
2023-03-26T15:41:49.622Z,99675.31
2023-03-26T15:47:26.353Z,99674.63
2023-03-26T15:52:38.263Z,99670.91
2023-03-26T15:57:53.122Z,99669.63
2023-03-26T16:03:34.263Z,99665.44
2023-03-26T16:08:53.239Z,99663.39
2023-03-26T16:14:17.445Z,99671.25
2023-03-26T16:19:58.989Z,99674.59
2023-03-26T16:25:29.603Z,99681.95
2023-03-26T16:30:37.022Z,99683.30
2023-03-26T16:35:59.710Z,99685.96
2023-03-26T16:41:14.834Z,99689.61
2023-03-26T16:46:34.529Z,99694.91
2023-03-26T16:51:57.007Z,99698.94
2023-03-26T16:57:15.531Z,99698.95
2023-03-26T17:02:29.084Z,99701.79
2023-03-26T17:07:38.866Z,99701.77
2023-03-26T17:12:51.362Z,99700.95
2023-03-26T17:18:32.428Z,99700.79
2023-03-26T17:24:00.193Z,99706.23
2023-03-26T17:29:20.331Z,99710.61
2023-03-26T17:34:46.630Z,99716.38
2023-03-26T17:40:37.152Z,99720.51
2023-03-26T17:45:43.897Z,99729.44
2023-03-26T17:50:54.394Z,99733.33
2023-03-26T17:56:05.531Z,99737.50
2023-03-26T18:01:22.276Z,99743.19
2023-03-26T18:06:44.975Z,99743.81
2023-03-26T18:12:11.633Z,99748.94
2023-03-26T18:17:17.398Z,99751.27
2023-03-26T18:22:26.587Z,99754.20
2023-03-26T18:27:40.555Z,99753.91
2023-03-26T18:33:00.120Z,99761.70
2023-03-26T18:38:06.111Z,99773.00
2023-03-26T18:43:32.276Z,99778.85
2023-03-26T18:48:40.948Z,99779.04
2023-03-26T18:53:50.738Z,99783.57
2023-03-26T18:58:58.911Z,99784.88
2023-03-26T19:04:07.041Z,99783.64
2023-03-26T19:09:30.325Z,99782.33
2023-03-26T19:14:53.537Z,99779.56
2023-03-26T19:19:59.208Z,99780.70
2023-03-26T19:25:05.852Z,99785.48
2023-03-26T19:30:20.110Z,99787.25
2023-03-26T19:35:25.515Z,99791.25
2023-03-26T19:40:34.974Z,99789.38
2023-03-26T19:45:59.861Z,99793.69
2023-03-26T19:51:19.501Z,99798.95
2023-03-26T19:56:25.581Z,99809.00
2023-03-26T20:01:32.187Z,99814.73
2023-03-26T20:06:43.777Z,99818.70
2023-03-26T20:11:52.622Z,99822.35
2023-03-26T20:16:58.115Z,99831.84
2023-03-26T20:22:05.389Z,99832.30
2023-03-26T20:27:13.796Z,99836.19
2023-03-26T20:32:26.495Z,99841.11
2023-03-26T20:37:32.585Z,99842.34
2023-03-26T20:42:38.441Z,99845.77
2023-03-26T20:47:44.042Z,99847.00
2023-03-26T20:52:50.458Z,99856.58
2023-03-26T20:57:55.867Z,99858.06
2023-03-26T21:03:02.000Z,99859.42
2023-03-26T21:08:12.912Z,99859.19
2023-03-26T21:13:39.085Z,99864.59
2023-03-26T21:18:46.015Z,99871.73
2023-03-26T21:24:00.253Z,99873.85
2023-03-26T21:29:06.311Z,99878.44
2023-03-26T21:34:13.387Z,99881.05
2023-03-26T21:39:20.291Z,99881.45
2023-03-26T21:44:27.229Z,99883.45
2023-03-26T21:49:34.884Z,99892.30
2023-03-26T21:54:43.014Z,99893.84
2023-03-26T21:59:56.695Z,99902.93
2023-03-26T22:05:06.142Z,99901.98
2023-03-26T22:10:11.794Z,99908.98
2023-03-26T22:15:18.264Z,99914.08
2023-03-26T22:20:25.159Z,99914.89
2023-03-26T22:25:51.043Z,99914.06
2023-03-26T22:31:16.844Z,99918.09
2023-03-26T22:36:42.755Z,99922.70
2023-03-26T22:42:08.471Z,99926.45
2023-03-26T22:47:34.177Z,99928.64
2023-03-26T22:53:00.290Z,99934.80
2023-03-26T22:58:26.055Z,99934.75
2023-03-26T23:03:52.293Z,99935.54
2023-03-26T23:09:18.038Z,99942.98
2023-03-26T23:14:44.172Z,99946.33
2023-03-26T23:20:09.817Z,99953.02
2023-03-26T23:25:35.556Z,99968.59
2023-03-26T23:31:05.441Z,99975.23
2023-03-26T23:36:32.911Z,99977.04
2023-03-26T23:41:58.850Z,99986.11
2023-03-26T23:47:24.626Z,99998.73
2023-03-26T23:52:51.856Z,100008.23
2023-03-26T23:58:17.511Z,100015.07
